Time;durP1;ratioP1;P1;durP2;ratioP2;P2;SDS_P1;SDS_P2;PMS_P1;PMS_P2;Temp;Humidity;BMP_temperature;BMP_pressure;BME280_temperature;BME280_humidity;BME280_pressure;Samples;Min_cycle;Max_cycle;Signal;HPM_P1;HPM_P2
2023/08/02 00:01:30;;;;;;;12.43;3.85;;;16.70;99.90;;;;;;4977832;28;49665;-78
2023/08/02 00:03:57;;;;;;;11.85;3.72;;;16.80;99.90;;;;;;4965441;28;37275;-79
2023/08/02 00:06:33;;;;;;;11.25;3.28;;;16.80;99.90;;;;;;4978169;28;40251;-79
2023/08/02 00:08:59;;;;;;;11.27;3.80;;;16.80;99.90;;;;;;4978864;28;40430;-79
2023/08/02 00:11:25;;;;;;;9.35;3.60;;;16.80;99.90;;;;;;4978794;28;39998;-78
2023/08/02 00:13:51;;;;;;;9.50;3.67;;;16.70;99.90;;;;;;4979820;28;37690;-79
2023/08/02 00:16:19;;;;;;;9.05;3.47;;;16.70;99.90;;;;;;4961366;28;38891;-79
2023/08/02 00:18:45;;;;;;;12.70;3.88;;;16.80;99.90;;;;;;4960105;28;39342;-79
2023/08/02 00:21:12;;;;;;;13.65;3.55;;;16.80;99.90;;;;;;4955247;28;38553;-79
2023/08/02 00:23:38;;;;;;;9.52;3.78;;;16.80;99.90;;;;;;4958541;28;35761;-78
2023/08/02 00:26:12;;;;;;;12.13;4.28;;;16.90;99.90;;;;;;4965729;28;38441;-79
2023/08/02 00:28:41;;;;;;;10.68;4.32;;;16.90;99.90;;;;;;4962651;28;38736;-78
2023/08/02 00:31:07;;;;;;;12.93;4.50;;;16.90;99.90;;;;;;4965249;28;38228;-78
2023/08/02 00:33:34;;;;;;;13.15;3.92;;;16.90;99.90;;;;;;4963189;28;37426;-78
2023/08/02 00:36:00;;;;;;;11.57;4.70;;;16.90;99.90;;;;;;4971699;28;39960;-80
2023/08/02 00:38:33;;;;;;;12.57;4.00;;;16.90;99.90;;;;;;4977099;28;40417;-78
2023/08/02 00:41:06;;;;;;;9.27;3.67;;;16.90;99.90;;;;;;4976511;28;40020;-79
2023/08/02 00:43:49;;;;;;;13.93;4.25;;;16.90;99.90;;;;;;4955065;28;48136;-79
2023/08/02 00:46:20;;;;;;;10.10;4.72;;;16.90;99.90;;;;;;4981055;28;38360;-80
2023/08/02 00:48:52;;;;;;;11.65;4.43;;;16.80;99.90;;;;;;4974400;28;38662;-79
2023/08/02 00:51:19;;;;;;;;;;;16.80;99.90;;;;;;4962736;28;38420;-80
2023/08/02 00:54:02;;;;;;;10.73;4.53;;;16.70;99.90;;;;;;4955107;28;37525;-80
2023/08/02 00:56:31;;;;;;;13.70;4.15;;;16.60;99.90;;;;;;4962583;28;48143;-79
2023/08/02 00:59:10;;;;;;;13.35;5.97;;;16.50;99.90;;;;;;4965356;28;38660;-80
2023/08/02 01:04:20;;;;;;;11.30;4.60;;;16.50;99.90;;;;;;4922453;28;20040;-80
2023/08/02 01:07:02;;;;;;;14.60;5.05;;;16.40;99.90;;;;;;4937200;28;39348;-79
2023/08/02 01:09:43;;;;;;;13.35;4.68;;;16.40;99.90;;;;;;4923334;29;46960;-80
2023/08/02 01:12:10;;;;;;;11.40;4.43;;;16.40;99.90;;;;;;4933555;28;39247;-79
2023/08/02 01:14:44;;;;;;;16.40;4.70;;;16.40;99.90;;;;;;4934734;28;37646;-80
2023/08/02 01:17:13;;;;;;;10.73;4.90;;;16.40;99.90;;;;;;4918863;28;40422;-79
2023/08/02 01:19:40;;;;;;;17.08;5.47;;;16.40;99.90;;;;;;4919480;29;37323;-81
2023/08/02 01:22:12;;;;;;;11.70;4.82;;;16.40;99.90;;;;;;4917447;29;38756;-80
2023/08/02 01:24:39;;;;;;;17.33;5.63;;;16.40;99.90;;;;;;4936460;28;38666;-79
2023/08/02 01:27:09;;;;;;;12.13;4.95;;;16.40;99.90;;;;;;4916879;28;37944;-80
2023/08/02 01:29:39;;;;;;;12.50;5.25;;;16.40;99.90;;;;;;4939636;28;38269;-80
2023/08/02 01:32:06;;;;;;;14.63;4.97;;;16.40;99.90;;;;;;4938419;28;37315;-79
2023/08/02 01:34:33;;;;;;;14.25;4.85;;;16.40;99.90;;;;;;4936968;28;37204;-79
2023/08/02 01:36:59;;;;;;;18.02;5.55;;;16.40;99.90;;;;;;4937763;28;39123;-79
2023/08/02 01:39:25;;;;;;;11.80;4.43;;;16.40;99.90;;;;;;4936008;28;39550;-80
2023/08/02 01:41:51;;;;;;;13.43;4.80;;;16.40;99.90;;;;;;4937745;28;39423;-79
2023/08/02 01:44:17;;;;;;;15.20;4.82;;;16.40;99.90;;;;;;4938207;28;36919;-80
2023/08/02 01:46:43;;;;;;;15.88;4.60;;;16.40;99.90;;;;;;4936281;28;37612;-80
2023/08/02 01:49:11;;;;;;;20.40;5.15;;;16.30;99.90;;;;;;4919913;28;37498;-79
2023/08/02 01:51:38;;;;;;;14.35;5.00;;;16.30;99.90;;;;;;4934445;28;37091;-79
2023/08/02 01:54:04;;;;;;;14.70;4.88;;;16.30;99.90;;;;;;4924438;29;36138;-80
2023/08/02 01:56:30;;;;;;;17.08;5.20;;;16.30;99.90;;;;;;4944252;28;37722;-80
2023/08/02 01:58:56;;;;;;;14.75;4.50;;;16.20;99.90;;;;;;4923605;29;39147;-80
2023/08/02 02:01:23;;;;;;;15.25;5.60;;;16.20;99.90;;;;;;4938580;28;38937;-78
2023/08/02 02:03:49;;;;;;;14.90;4.72;;;16.20;99.90;;;;;;4941034;28;35888;-80
2023/08/02 02:06:15;;;;;;;13.95;4.90;;;16.20;99.90;;;;;;4928651;28;37493;-79
2023/08/02 02:08:41;;;;;;;20.58;5.93;;;16.20;99.90;;;;;;4944673;28;38154;-79
2023/08/02 02:11:07;;;;;;;14.05;4.63;;;16.20;99.90;;;;;;4923001;29;37381;-79
2023/08/02 02:13:34;;;;;;;16.10;5.38;;;16.20;99.90;;;;;;4925276;29;35906;-80
2023/08/02 02:16:00;;;;;;;14.13;5.30;;;16.20;99.90;;;;;;4920967;28;38972;-80
2023/08/02 02:18:26;;;;;;;17.90;5.25;;;16.20;99.90;;;;;;4939613;28;38792;-79
2023/08/02 02:20:52;;;;;;;17.90;5.53;;;16.20;99.90;;;;;;4922400;29;39095;-79
2023/08/02 02:23:18;;;;;;;16.02;5.20;;;16.20;99.90;;;;;;4921134;29;35799;-79
2023/08/02 02:25:44;;;;;;;14.35;4.68;;;16.30;99.90;;;;;;4937054;28;37569;-78
2023/08/02 02:28:11;;;;;;;14.70;5.10;;;16.30;99.90;;;;;;4933375;28;38668;-79
2023/08/02 02:30:41;;;;;;;11.55;4.13;;;16.30;99.90;;;;;;4919894;29;38898;-78
2023/08/02 02:33:07;;;;;;;16.13;4.72;;;16.40;99.90;;;;;;4919901;28;35749;-79
2023/08/02 02:35:33;;;;;;;9.70;4.32;;;16.40;99.90;;;;;;4920452;29;38054;-79
2023/08/02 02:37:59;;;;;;;18.23;5.30;;;16.40;99.90;;;;;;4937464;28;38718;-79
2023/08/02 02:40:25;;;;;;;15.30;4.43;;;16.40;99.90;;;;;;4921328;28;37351;-78
2023/08/02 02:42:51;;;;;;;13.48;4.82;;;16.30;99.90;;;;;;4939059;28;37832;-78
2023/08/02 02:45:17;;;;;;;10.60;4.30;;;16.30;99.90;;;;;;4917771;28;37831;-79
2023/08/02 02:47:43;;;;;;;16.40;4.60;;;16.40;99.90;;;;;;4919664;29;37417;-78
2023/08/02 02:50:10;;;;;;;16.25;4.28;;;16.40;99.90;;;;;;4935941;28;36966;-79
2023/08/02 02:52:36;;;;;;;17.65;5.53;;;16.40;99.90;;;;;;4932686;28;36576;-79
2023/08/02 02:55:02;;;;;;;13.95;4.50;;;16.40;99.90;;;;;;4937595;28;38147;-79
2023/08/02 02:57:28;;;;;;;17.40;5.25;;;16.40;99.90;;;;;;4937606;28;39271;-80
2023/08/02 02:59:54;;;;;;;19.02;5.15;;;16.40;99.90;;;;;;4922250;29;35926;-79
2023/08/02 03:02:21;;;;;;;18.48;5.70;;;16.40;99.90;;;;;;4904595;28;36232;-79
2023/08/02 03:04:47;;;;;;;17.48;5.30;;;16.40;99.90;;;;;;4930339;28;37605;-79
2023/08/02 03:07:13;;;;;;;13.77;5.50;;;16.40;99.90;;;;;;4936618;28;37854;-78
2023/08/02 03:09:39;;;;;;;15.68;5.78;;;16.30;99.90;;;;;;4938876;28;38218;-79
2023/08/02 03:12:05;;;;;;;17.75;6.95;;;16.30;99.90;;;;;;4923350;28;37257;-80
2023/08/02 03:14:32;;;;;;;15.70;5.95;;;16.30;99.90;;;;;;4925504;29;38854;-79
2023/08/02 03:16:58;;;;;;;17.08;6.32;;;16.30;99.90;;;;;;4938817;28;39383;-79
2023/08/02 03:19:24;;;;;;;16.25;6.18;;;16.30;99.90;;;;;;4939838;28;37139;-80
2023/08/02 03:21:50;;;;;;;11.48;5.88;;;16.30;99.90;;;;;;4938568;28;36136;-79
2023/08/02 03:24:16;;;;;;;18.05;7.18;;;16.30;99.90;;;;;;4919617;29;38156;-79
2023/08/02 03:26:42;;;;;;;11.30;6.95;;;16.30;99.90;;;;;;4919104;28;38130;-80
2023/08/02 03:29:09;;;;;;;16.85;7.45;;;16.30;99.90;;;;;;4916428;29;37226;-80
2023/08/02 03:31:35;;;;;;;15.65;7.25;;;16.30;99.90;;;;;;4941355;28;35451;-80
2023/08/02 03:34:01;;;;;;;15.02;6.32;;;16.20;99.90;;;;;;4921585;28;37666;-79
2023/08/02 03:36:27;;;;;;;16.73;6.65;;;16.20;99.90;;;;;;4940039;28;46759;-80
2023/08/02 03:38:53;;;;;;;14.57;6.18;;;16.30;99.90;;;;;;4922924;29;36792;-80
2023/08/02 03:41:19;;;;;;;13.52;6.00;;;16.20;99.90;;;;;;4921423;29;36167;-78
2023/08/02 03:43:45;;;;;;;13.57;6.25;;;16.20;99.90;;;;;;4941492;28;40543;-79
2023/08/02 03:46:11;;;;;;;11.40;5.20;;;16.20;99.90;;;;;;4938082;29;39950;-80
2023/08/02 03:48:38;;;;;;;11.40;5.45;;;16.20;99.90;;;;;;4923631;29;37599;-79
2023/08/02 03:51:04;;;;;;;11.95;5.63;;;16.20;99.90;;;;;;4936562;28;35902;-78
2023/08/02 03:53:30;;;;;;;13.88;5.53;;;16.20;99.90;;;;;;4944530;28;37794;-80
2023/08/02 03:55:56;;;;;;;13.45;5.80;;;16.20;99.90;;;;;;4921021;29;39040;-79
2023/08/02 03:58:23;;;;;;;11.50;5.80;;;16.20;99.90;;;;;;4941156;28;38354;-79
2023/08/02 04:00:49;;;;;;;12.80;5.82;;;16.10;99.90;;;;;;4925951;29;33900;-79
2023/08/02 04:03:15;;;;;;;10.90;6.10;;;16.10;99.90;;;;;;4919143;29;39705;-79
2023/08/02 04:05:41;;;;;;;12.43;5.70;;;16.10;99.90;;;;;;4927753;29;39020;-78
2023/08/02 04:08:07;;;;;;;12.18;6.10;;;16.10;99.90;;;;;;4940609;28;38586;-80
2023/08/02 04:10:39;;;;;;;10.25;5.53;;;16.10;99.90;;;;;;4924032;29;36880;-80
2023/08/02 04:13:05;;;;;;;10.48;5.32;;;16.10;99.90;;;;;;4940777;28;38098;-79
2023/08/02 04:15:32;;;;;;;12.82;5.53;;;16.10;99.90;;;;;;4932953;29;37914;-80
2023/08/02 04:17:58;;;;;;;12.00;5.32;;;16.10;99.90;;;;;;4927998;29;37762;-80
2023/08/02 04:20:25;;;;;;;13.23;6.25;;;16.00;99.90;;;;;;4925975;29;35745;-79
2023/08/02 04:22:51;;;;;;;13.32;5.70;;;16.00;99.90;;;;;;4941989;28;39392;-79
2023/08/02 04:25:17;;;;;;;12.82;5.78;;;16.00;99.90;;;;;;4938662;28;39119;-79
2023/08/02 04:27:43;;;;;;;10.88;5.28;;;16.00;99.90;;;;;;4926007;29;37198;-80
2023/08/02 04:30:13;;;;;;;12.35;5.20;;;16.00;99.90;;;;;;4922710;29;34394;-79
2023/08/02 04:32:39;;;;;;;12.95;5.80;;;16.00;99.90;;;;;;4940561;28;38966;-80
2023/08/02 04:35:06;;;;;;;11.90;5.80;;;16.00;99.90;;;;;;4940247;28;37760;-79
2023/08/02 04:37:32;;;;;;;10.13;4.80;;;16.00;99.90;;;;;;4923850;29;37366;-80
2023/08/02 04:39:59;;;;;;;11.35;6.10;;;16.00;99.90;;;;;;4939755;28;37309;-79
2023/08/02 04:42:26;;;;;;;11.27;6.30;;;16.00;99.90;;;;;;4945214;28;37673;-80
2023/08/02 04:44:52;;;;;;;10.02;5.18;;;16.00;99.90;;;;;;4941739;28;38317;-80
2023/08/02 04:47:18;;;;;;;13.45;6.03;;;16.10;99.90;;;;;;4922804;29;37016;-79
2023/08/02 04:49:44;;;;;;;9.93;5.82;;;16.10;99.90;;;;;;4941592;28;36279;-79
2023/08/02 04:52:16;;;;;;;11.65;5.38;;;16.10;99.90;;;;;;4920499;29;38456;-80
2023/08/02 04:54:42;;;;;;;8.45;5.78;;;16.10;99.90;;;;;;4940415;28;37748;-79
2023/08/02 04:57:08;;;;;;;9.75;5.90;;;16.10;99.90;;;;;;4936782;28;38589;-78
2023/08/02 04:59:34;;;;;;;10.20;6.43;;;16.10;99.90;;;;;;4941515;28;37084;-79
2023/08/02 05:02:01;;;;;;;12.52;6.30;;;16.10;99.90;;;;;;4927061;29;37182;-80
2023/08/02 05:04:27;;;;;;;16.60;7.15;;;16.20;99.90;;;;;;4943628;28;46082;-81
2023/08/02 05:12:11;;;;;;;10.40;6.57;;;16.10;99.90;;;;;;4975873;28;20040;-79
2023/08/02 05:17:13;;;;;;;10.48;6.30;;;16.10;99.90;;;;;;4965311;23;20048;-80
2023/08/02 05:20:23;;;;;;;13.38;6.55;;;16.00;99.90;;;;;;4958613;28;35765;-79
2023/08/02 05:22:49;;;;;;;10.93;7.15;;;16.00;99.90;;;;;;5068535;23;48574;-80
2023/08/02 05:25:15;;;;;;;12.05;6.90;;;16.00;99.90;;;;;;4962207;28;40295;-80
2023/08/02 05:27:42;;;;;;;9.65;6.63;;;15.90;99.90;;;;;;5306381;23;38386;-80
2023/08/02 05:30:08;;;;;;;10.23;6.90;;;16.00;99.90;;;;;;5450014;23;35954;-82
2023/08/02 05:32:35;;;;;;;13.73;6.78;;;16.00;99.90;;;;;;5270519;23;39113;-81
2023/08/02 06:27:22;;;;;;;8.13;6.10;;;16.10;99.90;;;;;;5954671;23;20027;-80
2023/08/02 07:48:49;;;;;;;2.83;2.50;;;16.60;99.90;;;;;;4971036;28;20081;-83
2023/08/02 07:51:44;;;;;;;1.98;1.88;;;16.50;99.90;;;;;;4959894;28;37496;-83
2023/08/02 08:01:58;;;;;;;1.95;1.85;;;16.80;99.90;;;;;;5229177;23;20028;-81
2023/08/02 08:09:36;;;;;;;2.35;2.20;;;17.10;99.90;;;;;;5909992;23;20038;-82
2023/08/02 08:17:33;;;;;;;2.05;1.92;;;17.30;99.90;;;;;;4920408;29;20033;-81
2023/08/02 08:25:26;;;;;;;1.95;1.85;;;17.60;99.90;;;;;;5052694;23;20502;-80
2023/08/02 08:36:00;;;;;;;2.08;1.98;;;18.20;99.90;;;;;;4970138;23;20043;-80
2023/08/02 08:38:30;;;;;;;1.98;1.85;;;18.40;99.90;;;;;;4868481;29;37691;-79
2023/08/02 08:48:47;;;;;;;4.20;1.83;;;18.70;99.90;;;;;;5691554;23;20055;-80
2023/08/02 08:51:49;;;;;;;2.47;1.90;;;18.70;99.90;;;;;;4918105;28;39475;-80
2023/08/02 08:54:27;;;;;;;1.85;1.75;;;18.70;99.90;;;;;;4971380;23;39654;-79
2023/08/02 08:57:28;;;;;;;2.88;1.73;;;18.80;99.90;;;;;;4955619;28;38374;-80
2023/08/02 09:02:45;;;;;;;3.05;1.70;;;19.40;99.90;;;;;;5083688;23;20041;-79
2023/08/02 09:08:17;;;;;;;2.40;1.48;;;19.40;99.90;;;;;;5082217;23;20084;-80
2023/08/02 09:16:05;;;;;;;3.90;1.75;;;19.80;99.90;;;;;;5927134;23;20015;-79
2023/08/02 09:45:35;;;;;;;8.60;1.90;;;20.30;99.90;;;;;;5774007;23;20053;-80
2023/08/02 09:51:49;;;;;;;4.00;1.30;;;20.40;99.90;;;;;;5261792;23;20048;-79
2023/08/02 09:54:31;;;;;;;5.95;1.40;;;20.30;99.90;;;;;;4856606;29;38376;-80
2023/08/02 10:02:03;;;;;;;6.53;1.88;;;19.90;99.90;;;;;;5615412;23;20007;-79
2023/08/02 10:05:18;;;;;;;9.65;1.90;;;20.00;99.90;;;;;;4921518;28;36876;-81
2023/08/02 10:15:33;;;;;;;9.45;1.83;;;21.30;99.90;;;;;;5274868;23;20037;-79
2023/08/02 10:20:46;;;;;;;10.80;3.08;;;21.90;99.90;;;;;;5638935;23;20043;-80
2023/08/02 10:23:12;;;;;;;11.10;2.25;;;22.10;99.90;;;;;;4972250;28;38214;-78
2023/08/02 10:28:15;;;;;;;9.18;2.42;;;21.60;99.90;;;;;;5485027;23;20046;-78
2023/08/02 10:30:41;;;;;;;10.23;2.13;;;21.50;99.90;;;;;;4925339;29;36194;-78
2023/08/02 10:33:32;;;;;;;7.95;2.10;;;21.20;99.90;;;;;;4914291;29;37954;-80
2023/08/02 10:36:05;;;;;;;6.60;2.00;;;20.80;99.90;;;;;;4939017;28;36123;-79
2023/08/02 10:38:38;;;;;;;7.45;1.55;;;20.80;99.90;;;;;;4904612;29;48423;-80
2023/08/02 10:41:10;;;;;;;3.38;1.10;;;21.00;99.90;;;;;;4931038;28;38567;-79
2023/08/02 10:43:55;;;;;;;8.18;1.42;;;21.30;99.90;;;;;;4920522;29;38093;-79
2023/08/02 10:46:24;;;;;;;5.80;1.00;;;21.70;99.90;;;;;;4919020;29;36268;-79
2023/08/02 10:48:51;;;;;;;4.18;1.05;;;22.10;99.90;;;;;;4923033;29;37989;-78
2023/08/02 10:51:34;;;;;;;5.72;1.38;;;22.20;99.90;;;;;;4922236;29;39117;-79
2023/08/02 10:54:21;;;;;;;6.95;1.77;;;22.20;99.90;;;;;;4927725;29;37531;-80
2023/08/02 10:57:04;;;;;;;10.10;1.60;;;22.20;99.90;;;;;;4938304;29;47539;-80
2023/08/02 10:59:30;;;;;;;6.65;1.50;;;22.40;99.90;;;;;;4938791;29;50161;-79
2023/08/02 11:02:11;;;;;;;7.03;1.40;;;22.40;99.90;;;;;;4907995;29;38133;-78
2023/08/02 11:04:44;;;;;;;8.43;1.38;;;22.50;99.90;;;;;;4912765;29;47084;-78
2023/08/02 11:07:25;;;;;;;5.78;1.50;;;22.50;99.90;;;;;;4927698;28;37780;-80
2023/08/02 11:09:54;;;;;;;7.80;1.60;;;22.40;99.90;;;;;;4949995;28;38829;-79
2023/08/02 11:12:21;;;;;;;11.05;1.60;;;22.20;99.90;;;;;;4933739;28;38434;-81
2023/08/02 11:14:50;;;;;;;7.70;1.48;;;22.20;99.90;;;;;;4921249;29;37553;-79
2023/08/02 11:17:20;;;;;;;7.75;1.42;;;22.50;99.90;;;;;;4932433;28;35984;-78
2023/08/02 11:19:51;;;;;;;6.65;1.40;;;22.60;99.90;;;;;;4916376;29;39561;-79
2023/08/02 11:22:20;;;;;;;9.23;1.43;;;23.00;99.90;;;;;;4925683;29;37660;-78
2023/08/02 11:24:50;;;;;;;6.45;1.50;;;23.10;96.40;;;;;;4920658;28;35716;-77
2023/08/02 11:27:19;;;;;;;6.07;1.08;;;23.10;95.50;;;;;;4934581;29;36495;-77
2023/08/02 11:30:06;;;;;;;5.90;1.70;;;23.10;92.90;;;;;;4914634;29;37975;-78
2023/08/02 11:32:33;;;;;;;5.47;1.25;;;23.00;96.10;;;;;;4919534;29;39516;-78
2023/08/02 11:35:00;;;;;;;7.35;1.52;;;22.80;95.00;;;;;;4936083;28;38309;-78
2023/08/02 11:37:29;;;;;;;8.02;1.30;;;22.90;94.00;;;;;;4937122;28;38296;-78
2023/08/02 11:39:58;;;;;;;5.47;1.23;;;22.80;91.80;;;;;;4920033;29;37082;-76
2023/08/02 11:42:25;;;;;;;5.55;1.17;;;22.70;98.50;;;;;;4919473;29;39102;-79
2023/08/02 11:44:51;;;;;;;5.95;1.13;;;22.50;99.90;;;;;;4915756;29;37240;-78
2023/08/02 11:47:19;;;;;;;7.20;1.85;;;22.70;99.90;;;;;;4924905;29;36201;-78
2023/08/02 11:49:59;;;;;;;8.80;2.13;;;22.70;99.90;;;;;;4969833;23;39151;-79
2023/08/02 11:55:12;;;;;;;6.60;1.55;;;22.20;99.90;;;;;;5204905;23;20077;-78
2023/08/02 12:03:29;;;;;;;7.22;1.27;;;23.30;90.20;;;;;;5074583;23;20028;-78
2023/08/02 12:11:20;;;;;;;7.85;1.17;;;24.00;75.50;;;;;;4916887;29;20031;-78
2023/08/02 12:14:02;;;;;;;4.38;0.85;;;23.20;79.70;;;;;;4902341;29;38643;-78
2023/08/02 12:16:44;;;;;;;3.40;0.70;;;22.60;93.80;;;;;;4911595;29;50340;-80
2023/08/02 12:19:11;;;;;;;3.33;0.85;;;22.50;97.70;;;;;;4907918;29;38119;-79
2023/08/02 12:21:39;;;;;;;1.98;0.63;;;22.20;95.30;;;;;;4900960;29;40371;-79
2023/08/02 12:24:17;;;;;;;4.53;0.90;;;22.10;95.70;;;;;;4885619;29;37747;-79
2023/08/02 12:26:43;;;;;;;1.80;0.40;;;22.00;99.30;;;;;;4873720;29;38712;-78
2023/08/02 12:29:21;;;;;;;5.30;0.93;;;21.90;99.90;;;;;;4907295;29;37397;-78
2023/08/02 12:31:48;;;;;;;6.47;1.20;;;22.20;99.90;;;;;;4893680;29;39959;-78
2023/08/02 12:34:14;;;;;;;7.07;1.30;;;22.20;96.60;;;;;;4895542;29;39612;-78
2023/08/02 12:36:40;;;;;;;6.47;1.30;;;22.20;99.90;;;;;;4896283;29;40181;-78
2023/08/02 12:39:07;;;;;;;7.22;1.23;;;21.90;99.90;;;;;;4877890;29;36357;-77
2023/08/02 12:41:34;;;;;;;7.45;1.25;;;21.90;99.90;;;;;;4879401;29;39292;-77
2023/08/02 12:44:00;;;;;;;5.75;1.33;;;21.90;99.90;;;;;;4893181;29;37645;-77
2023/08/02 12:46:26;;;;;;;9.15;1.25;;;21.90;99.90;;;;;;4905128;29;38003;-79
2023/08/02 12:48:52;;;;;;;9.65;1.40;;;22.00;99.90;;;;;;4896797;29;35995;-78
2023/08/02 12:51:18;;;;;;;7.57;1.58;;;21.70;98.60;;;;;;4886038;29;38481;-78
2023/08/02 12:56:20;;;;;;;16.05;2.30;;;21.90;99.90;;;;;;5170915;23;20046;-78
2023/08/02 12:58:49;;;;;;;18.30;2.45;;;22.20;99.90;;;;;;4969155;28;37598;-80
2023/08/02 13:01:15;;;;;;;12.85;2.72;;;22.50;96.20;;;;;;4970479;28;38839;-76
2023/08/02 13:03:43;;;;;;;13.52;3.03;;;22.60;98.00;;;;;;4975445;28;39032;-79
2023/08/02 13:08:51;;;;;;;12.25;2.67;;;22.70;78.70;;;;;;5123721;23;20054;-76
2023/08/02 13:11:17;;;;;;;19.60;2.95;;;22.40;61.00;;;;;;4943258;28;37227;-77
2023/08/02 13:13:45;;;;;;;9.80;2.25;;;22.50;53.20;;;;;;4995379;23;41439;-79
2023/08/02 13:16:12;;;;;;;9.63;2.60;;;22.70;59.80;;;;;;4935401;28;36490;-79
2023/08/02 13:18:57;;;;;;;10.65;2.25;;;22.80;57.30;;;;;;4973814;28;37474;-77
2023/08/02 13:21:24;;;;;;;7.70;2.05;;;22.80;49.00;;;;;;4970767;28;38937;-78
2023/08/02 13:23:50;;;;;;;9.45;2.28;;;23.00;58.30;;;;;;4977657;28;40474;-78
2023/08/02 13:26:41;;;;;;;12.38;2.47;;;22.90;41.70;;;;;;4952633;28;36924;-80
2023/08/02 13:29:43;;;;;;;12.73;2.58;;;22.90;59.10;;;;;;4982811;28;38585;-79
2023/08/02 13:32:09;;;;;;;18.90;3.30;;;23.30;26.00;;;;;;4992097;28;38652;-79
2023/08/02 13:34:37;;;;;;;15.05;3.05;;;23.10;39.00;;;;;;4988680;28;40039;-79
2023/08/02 13:37:05;;;;;;;15.70;3.00;;;22.90;52.50;;;;;;4979548;28;39580;-79
2023/08/02 13:39:39;;;;;;;25.55;3.78;;;22.90;59.60;;;;;;4988436;28;38733;-79
2023/08/02 13:42:09;;;;;;;14.30;2.72;;;23.30;74.80;;;;;;4988038;28;40982;-79
2023/08/02 13:49:52;;;;;;;15.52;2.60;;;23.30;49.10;;;;;;4986619;23;20028;-80
2023/08/02 13:52:18;;;;;;;10.35;2.83;;;23.30;60.30;;;;;;4945374;28;40567;-76
2023/08/02 13:54:54;;;;;;;11.98;3.20;;;23.40;49.10;;;;;;4937097;28;39174;-79
2023/08/02 14:00:11;;;;;;;16.83;2.92;;;22.60;58.60;;;;;;5299923;23;20044;-80
2023/08/02 14:02:46;;;;;;;12.60;3.00;;;22.40;63.70;;;;;;4924180;28;38645;-80
2023/08/02 14:06:12;;;;;;;11.15;3.20;;;22.40;71.00;;;;;;4951293;28;39476;-80
2023/08/02 14:08:39;;;;;;;13.45;2.95;;;22.30;65.40;;;;;;4905635;28;49295;-78
2023/08/02 14:14:58;;;;;;;11.95;2.92;;;22.10;92.00;;;;;;5047825;23;40505;-78
2023/08/02 14:20:00;;;;;;;11.77;2.42;;;22.00;89.90;;;;;;5768938;23;20123;-79
2023/08/02 14:22:26;;;;;;;18.45;3.28;;;21.80;98.10;;;;;;5377216;23;38774;-79
2023/08/02 14:24:59;;;;;;;12.50;2.83;;;21.60;90.90;;;;;;4958503;28;37934;-79
2023/08/02 14:27:28;;;;;;;20.48;5.13;;;21.50;92.40;;;;;;4941759;28;38259;-82
2023/08/02 14:31:00;;;;;;;21.65;4.07;;;21.50;93.70;;;;;;4962588;28;39032;-80
2023/08/02 14:33:46;;;;;;;17.90;3.25;;;21.40;94.40;;;;;;5859522;23;20292;-79
2023/08/02 14:39:07;;;;;;;13.23;3.50;;;21.30;96.20;;;;;;5487700;23;40538;-80
2023/08/02 14:41:34;;;;;;;17.05;3.70;;;21.10;99.90;;;;;;5507613;23;39837;-81
2023/08/02 14:44:16;;;;;;;15.48;3.13;;;21.00;99.90;;;;;;4964006;28;38367;-82
2023/08/02 14:46:44;;;;;;;11.60;2.40;;;20.80;99.90;;;;;;5098477;23;48913;-81
2023/08/02 14:49:19;;;;;;;10.65;2.50;;;20.30;99.90;;;;;;4941588;28;37003;-81
2023/08/02 14:52:00;;;;;;;17.15;3.08;;;20.20;99.90;;;;;;4932523;28;38549;-81
2023/08/02 14:54:29;;;;;;;9.75;2.58;;;20.20;99.90;;;;;;4995151;23;34490;-80
2023/08/02 14:56:58;;;;;;;15.90;2.25;;;20.20;99.90;;;;;;5048538;23;40229;-81
2023/08/02 14:59:24;;;;;;;11.02;2.22;;;19.90;99.90;;;;;;4934254;28;39228;-79
2023/08/02 15:01:53;;;;;;;10.35;2.10;;;19.60;99.90;;;;;;4937205;28;37734;-79
2023/08/02 15:04:19;;;;;;;8.07;1.42;;;19.20;99.90;;;;;;4928170;28;36952;-78
2023/08/02 15:06:46;;;;;;;7.28;1.67;;;18.80;99.90;;;;;;4931054;28;38485;-78
2023/08/02 15:09:13;;;;;;;8.68;1.85;;;18.80;99.90;;;;;;4949642;28;39222;-79
2023/08/02 15:11:39;;;;;;;9.95;1.50;;;18.80;99.90;;;;;;4945911;28;38810;-78
2023/08/02 15:14:06;;;;;;;7.55;1.60;;;19.00;99.90;;;;;;4926319;28;36981;-79
2023/08/02 15:16:33;;;;;;;10.30;2.70;;;19.10;99.90;;;;;;4954146;28;39504;-78
2023/08/02 15:18:59;;;;;;;7.05;1.45;;;19.30;99.90;;;;;;4948356;28;39636;-78
2023/08/02 15:21:25;;;;;;;7.55;1.55;;;19.40;99.90;;;;;;4941753;28;38395;-78
2023/08/02 15:23:51;;;;;;;11.98;2.30;;;19.50;99.90;;;;;;4946184;28;37739;-80
2023/08/02 15:26:18;;;;;;;9.27;2.30;;;19.60;99.90;;;;;;4929578;28;37671;-78
2023/08/02 15:28:44;;;;;;;12.45;3.17;;;19.60;99.90;;;;;;4936295;28;38911;-77
2023/08/02 15:31:10;;;;;;;16.15;3.05;;;19.60;99.90;;;;;;4931870;28;38741;-80
2023/08/02 15:33:36;;;;;;;16.83;3.30;;;19.70;99.90;;;;;;4929595;28;35893;-79
2023/08/02 15:36:02;;;;;;;9.75;2.55;;;19.70;99.90;;;;;;4932683;28;38051;-79
2023/08/02 15:38:28;;;;;;;11.45;2.70;;;19.80;99.90;;;;;;4937355;28;37478;-79
2023/08/02 15:40:55;;;;;;;18.13;3.00;;;19.80;99.90;;;;;;4933877;28;37348;-78
2023/08/02 15:43:21;;;;;;;12.30;2.83;;;19.90;99.90;;;;;;4954530;28;38354;-78
2023/08/02 15:45:49;;;;;;;15.98;2.92;;;20.00;99.90;;;;;;4952733;28;37425;-81
2023/08/02 15:48:15;;;;;;;14.02;3.15;;;20.20;99.90;;;;;;4952094;28;39068;-78
2023/08/02 15:50:42;;;;;;;17.00;3.50;;;20.30;99.90;;;;;;4940676;28;38150;-78
2023/08/02 15:53:08;;;;;;;17.70;3.10;;;20.30;99.90;;;;;;4948334;28;37037;-78
2023/08/02 15:55:34;;;;;;;14.77;3.45;;;20.30;99.90;;;;;;4951100;28;38896;-78
2023/08/02 15:58:00;;;;;;;14.45;2.75;;;20.20;99.90;;;;;;4937421;28;37784;-79
2023/08/02 16:00:26;;;;;;;14.43;3.10;;;20.10;99.90;;;;;;4930973;28;38335;-78
2023/08/02 16:02:52;;;;;;;14.43;2.63;;;20.20;99.90;;;;;;4944206;28;37397;-79
2023/08/02 16:05:21;;;;;;;11.45;2.67;;;20.10;99.90;;;;;;4956748;28;38669;-78
2023/08/02 16:07:48;;;;;;;10.25;2.50;;;20.00;99.90;;;;;;4949375;28;39754;-79
2023/08/02 16:10:15;;;;;;;13.65;3.15;;;20.00;99.90;;;;;;4954714;28;39280;-79
2023/08/02 16:12:41;;;;;;;14.98;3.28;;;20.00;99.90;;;;;;4942827;28;36354;-78
2023/08/02 16:15:07;;;;;;;15.27;2.85;;;20.00;99.90;;;;;;4944046;28;37570;-79
2023/08/02 16:17:33;;;;;;;19.95;3.45;;;20.10;99.90;;;;;;4934467;28;37447;-79
2023/08/02 16:19:59;;;;;;;15.52;3.10;;;19.90;99.90;;;;;;4942702;28;39119;-78
2023/08/02 16:22:25;;;;;;;20.50;3.60;;;19.70;99.90;;;;;;4928131;28;36307;-79
2023/08/02 16:24:51;;;;;;;24.50;3.53;;;19.60;99.90;;;;;;4947469;28;38911;-79
2023/08/02 16:27:17;;;;;;;13.10;2.63;;;19.60;99.90;;;;;;4927607;28;38377;-77
2023/08/02 16:29:44;;;;;;;14.05;2.80;;;19.70;99.90;;;;;;4929147;28;37529;-77
2023/08/02 16:32:11;;;;;;;15.35;2.38;;;19.70;99.90;;;;;;4923806;28;36017;-77
2023/08/02 16:34:37;;;;;;;11.95;2.70;;;19.60;99.90;;;;;;4941324;28;38673;-77
2023/08/02 16:37:03;;;;;;;11.52;2.53;;;19.50;99.90;;;;;;4941902;28;38550;-77
2023/08/02 16:39:29;;;;;;;10.38;1.60;;;19.40;99.90;;;;;;4923160;28;37383;-78
2023/08/02 16:41:56;;;;;;;9.65;1.52;;;19.40;99.90;;;;;;4927117;28;38216;-77
2023/08/02 16:44:22;;;;;;;5.20;1.40;;;19.20;99.90;;;;;;4945895;28;39319;-78
2023/08/02 16:46:48;;;;;;;9.48;1.70;;;19.00;99.90;;;;;;4944009;28;38633;-78
2023/08/02 16:49:14;;;;;;;9.93;2.05;;;18.80;99.90;;;;;;4922285;28;38440;-78
2023/08/02 16:51:40;;;;;;;9.18;1.67;;;18.80;99.90;;;;;;4929941;28;35641;-78
2023/08/02 16:54:06;;;;;;;9.65;2.05;;;18.80;99.90;;;;;;4930363;28;37916;-78
2023/08/02 16:56:32;;;;;;;6.38;1.65;;;18.60;99.90;;;;;;4932877;28;37685;-79
2023/08/02 16:58:58;;;;;;;7.75;1.52;;;18.60;99.90;;;;;;4945234;28;37834;-79
2023/08/02 17:01:25;;;;;;;10.73;1.98;;;18.50;99.90;;;;;;4931988;28;37536;-78
2023/08/02 17:03:51;;;;;;;6.97;1.85;;;18.50;99.90;;;;;;4924696;28;37638;-77
2023/08/02 17:06:19;;;;;;;7.15;1.70;;;18.70;99.90;;;;;;4950570;28;39025;-79
2023/08/02 17:08:46;;;;;;;8.60;1.83;;;18.60;99.90;;;;;;4936274;28;37271;-77
2023/08/02 17:11:12;;;;;;;8.32;2.20;;;18.70;99.90;;;;;;4925395;28;36754;-79
2023/08/02 17:13:38;;;;;;;9.88;1.77;;;18.70;99.90;;;;;;4915821;28;38952;-77
2023/08/02 17:16:05;;;;;;;10.05;2.15;;;18.70;99.90;;;;;;4935837;28;37467;-77
2023/08/02 17:18:31;;;;;;;14.18;1.88;;;18.70;99.90;;;;;;4923720;28;37867;-78
2023/08/02 17:20:57;;;;;;;9.35;1.88;;;18.80;99.90;;;;;;4942037;28;38335;-77
2023/08/02 17:23:23;;;;;;;11.93;2.42;;;18.80;99.90;;;;;;4937738;28;39249;-77
2023/08/02 17:25:49;;;;;;;11.07;2.30;;;18.90;99.90;;;;;;4942073;28;40514;-78
2023/08/02 17:28:15;;;;;;;11.75;2.20;;;18.90;99.90;;;;;;4944419;28;38546;-77
2023/08/02 17:30:41;;;;;;;11.13;1.75;;;18.80;99.90;;;;;;4924831;28;37542;-77